createdAt,value
2023-05-14T00:00:26.261Z,99.90
2023-05-14T00:05:28.381Z,99.90
2023-05-14T00:10:30.627Z,99.90
2023-05-14T00:15:34.323Z,99.90
2023-05-14T00:20:36.730Z,99.90
2023-05-14T00:25:39.363Z,99.90
2023-05-14T00:30:41.407Z,99.90
2023-05-14T00:35:44.239Z,99.90
2023-05-14T00:40:51.461Z,99.90
2023-05-14T00:45:54.902Z,99.90
2023-05-14T00:50:56.986Z,99.90
2023-05-14T00:56:02.962Z,99.90
2023-05-14T01:01:05.664Z,99.90
2023-05-14T01:06:27.483Z,99.90
2023-05-14T01:11:30.294Z,99.90
2023-05-14T01:16:34.309Z,99.90
2023-05-14T01:21:38.036Z,99.90
2023-05-14T01:26:40.426Z,99.90
2023-05-14T01:31:45.772Z,99.90
2023-05-14T01:36:48.673Z,99.90
2023-05-14T01:41:52.701Z,99.90
2023-05-14T01:46:55.052Z,99.90
2023-05-14T01:51:57.096Z,99.90
2023-05-14T01:56:59.610Z,99.90
2023-05-14T02:02:01.821Z,99.90
2023-05-14T02:07:03.893Z,99.90
2023-05-14T02:12:06.570Z,99.90
2023-05-14T02:17:08.987Z,99.90
2023-05-14T02:22:11.006Z,99.90
2023-05-14T02:27:13.538Z,99.90
2023-05-14T02:32:15.732Z,99.90
2023-05-14T02:37:17.964Z,99.90
2023-05-14T02:42:20.023Z,99.90
2023-05-14T02:47:22.139Z,99.90
2023-05-14T02:52:24.229Z,99.90
2023-05-14T02:57:26.332Z,99.90
2023-05-14T03:02:28.569Z,99.90
2023-05-14T03:07:31.158Z,99.90
2023-05-14T03:12:33.306Z,99.90
2023-05-14T03:17:35.634Z,99.90
2023-05-14T03:22:37.780Z,99.90
2023-05-14T03:27:40.351Z,99.90
2023-05-14T03:32:43.129Z,99.90
2023-05-14T03:37:45.284Z,99.90
2023-05-14T03:42:47.343Z,99.90
2023-05-14T03:47:51.085Z,99.90
2023-05-14T03:52:55.114Z,99.90
2023-05-14T03:57:57.150Z,99.90
2023-05-14T04:02:59.554Z,99.90
2023-05-14T04:08:01.908Z,99.90
2023-05-14T04:13:03.991Z,99.90
2023-05-14T04:18:09.636Z,99.90
2023-05-14T04:23:11.658Z,99.90
2023-05-14T04:28:13.713Z,99.90
2023-05-14T04:33:15.937Z,99.90
2023-05-14T04:38:17.976Z,99.90
2023-05-14T04:43:20.031Z,99.90
2023-05-14T04:48:22.604Z,99.90
2023-05-14T04:53:24.801Z,99.90
2023-05-14T04:58:29.014Z,99.90
2023-05-14T05:03:31.402Z,99.90
2023-05-14T05:08:33.451Z,99.90
2023-05-14T05:13:35.524Z,99.90
2023-05-14T05:18:37.631Z,99.90
2023-05-14T05:23:40.224Z,99.90
2023-05-14T05:28:42.606Z,99.90
2023-05-14T05:33:45.124Z,99.90
2023-05-14T05:38:47.212Z,99.90
2023-05-14T05:43:49.462Z,99.90
2023-05-14T05:48:51.690Z,99.90
2023-05-14T05:53:53.787Z,99.90
2023-05-14T05:58:55.899Z,99.90
2023-05-14T06:03:57.939Z,99.90
2023-05-14T06:09:01.932Z,99.90
2023-05-14T06:14:04.825Z,99.90
2023-05-14T06:19:08.577Z,99.90
2023-05-14T06:24:11.133Z,99.90
2023-05-14T06:29:13.341Z,99.90
2023-05-14T06:34:15.544Z,99.90
2023-05-14T06:39:17.643Z,99.90
2023-05-14T06:44:19.966Z,99.90
2023-05-14T06:49:21.978Z,99.90
2023-05-14T06:54:23.991Z,99.90
2023-05-14T06:59:26.537Z,99.90
2023-05-14T07:04:28.653Z,99.90
2023-05-14T07:09:30.778Z,99.90
2023-05-14T07:14:32.780Z,99.90
2023-05-14T07:19:34.798Z,99.90
2023-05-14T07:24:36.819Z,99.90
2023-05-14T07:29:39.070Z,99.90
2023-05-14T07:34:41.343Z,99.90
2023-05-14T07:39:43.378Z,99.90
2023-05-14T07:44:46.122Z,99.90
2023-05-14T07:49:48.132Z,99.90
2023-05-14T07:54:51.507Z,99.90
2023-05-14T07:59:53.550Z,99.90
2023-05-14T08:04:55.788Z,99.90
2023-05-14T08:09:57.896Z,99.90
2023-05-14T08:14:59.979Z,99.90
2023-05-14T08:20:02.871Z,99.90
2023-05-14T08:25:06.594Z,99.90
2023-05-14T08:30:09.029Z,99.90
2023-05-14T08:35:11.486Z,99.90
2023-05-14T08:40:13.870Z,99.90
2023-05-14T08:45:20.937Z,99.90
2023-05-14T08:50:23.901Z,99.90
2023-05-14T08:55:27.358Z,99.90
2023-05-14T09:00:29.872Z,99.90
2023-05-14T09:05:33.509Z,99.90
2023-05-14T09:10:35.700Z,99.90
2023-05-14T09:15:39.327Z,99.90
2023-05-14T09:20:41.422Z,99.90
2023-05-14T09:25:43.459Z,99.90
2023-05-14T09:30:52.383Z,99.90
2023-05-14T09:36:02.134Z,99.90
2023-05-14T09:41:04.323Z,99.90
2023-05-14T09:46:06.395Z,99.90
2023-05-14T09:51:11.241Z,97.80
2023-05-14T09:56:13.520Z,84.50
2023-05-14T10:01:18.906Z,79.40
2023-05-14T10:06:25.883Z,64.80
2023-05-14T10:11:32.949Z,60.00
2023-05-14T10:16:40.517Z,63.70
2023-05-14T10:21:45.933Z,58.60
2023-05-14T10:26:48.867Z,58.30
2023-05-14T10:31:55.545Z,57.40
2023-05-14T10:37:09.308Z,55.20
2023-05-14T10:42:17.955Z,53.90
2023-05-14T10:47:20.743Z,55.20
2023-05-14T10:52:23.352Z,55.90
2023-05-14T10:57:27.797Z,53.50
2023-05-14T11:02:34.544Z,53.70
2023-05-14T11:07:38.682Z,52.90
2023-05-14T11:12:43.197Z,52.90
2023-05-14T11:17:47.127Z,52.60
2023-05-14T11:22:51.818Z,49.50
2023-05-14T11:27:58.420Z,51.60
2023-05-14T11:33:02.088Z,45.50
2023-05-14T11:38:04.441Z,43.00
2023-05-14T11:43:06.547Z,42.80
2023-05-14T11:48:18.210Z,40.60
2023-05-14T11:53:25.682Z,40.00
2023-05-14T11:58:27.737Z,39.10
2023-05-14T12:03:31.344Z,39.10
2023-05-14T12:08:33.770Z,39.80
2023-05-14T12:13:37.297Z,42.40
2023-05-14T12:18:39.539Z,45.00
2023-05-14T12:23:41.830Z,44.10
2023-05-14T12:28:48.096Z,40.70
2023-05-14T12:33:50.262Z,38.40
2023-05-14T12:39:00.780Z,38.40
2023-05-14T12:44:04.761Z,37.70
2023-05-14T12:49:07.092Z,38.80
2023-05-14T12:54:11.121Z,39.40
2023-05-14T12:59:13.246Z,37.00
2023-05-14T13:04:15.659Z,40.30
2023-05-14T13:09:17.807Z,42.90
2023-05-14T13:14:20.354Z,42.30
2023-05-14T13:19:22.456Z,41.50
2023-05-14T13:24:25.243Z,43.60
2023-05-14T13:29:29.573Z,40.90
2023-05-14T13:34:31.755Z,40.80
2023-05-14T13:39:33.996Z,42.00
2023-05-14T13:44:36.429Z,39.90
2023-05-14T13:49:38.645Z,40.20
2023-05-14T13:54:41.113Z,38.80
2023-05-14T13:59:43.257Z,38.70
2023-05-14T14:04:45.856Z,36.40
2023-05-14T14:09:48.097Z,36.80
2023-05-14T14:14:51.140Z,36.70
2023-05-14T14:19:53.137Z,37.20
2023-05-14T14:24:55.214Z,36.00
2023-05-14T14:29:57.412Z,34.50
2023-05-14T14:34:59.699Z,35.00
2023-05-14T14:40:02.050Z,36.10
2023-05-14T14:45:05.725Z,36.30
2023-05-14T14:50:08.690Z,37.20
2023-05-14T14:55:11.561Z,36.00
2023-05-14T15:00:14.591Z,36.90
2023-05-14T15:05:16.840Z,37.40
2023-05-14T15:10:18.886Z,38.00
2023-05-14T15:15:21.462Z,38.30
2023-05-14T15:20:23.739Z,39.60
2023-05-14T15:25:27.084Z,38.30
2023-05-14T15:30:29.233Z,37.30
2023-05-14T15:35:31.310Z,36.50
2023-05-14T15:40:35.160Z,36.70
2023-05-14T15:45:37.264Z,37.50
2023-05-14T15:50:39.523Z,35.60
2023-05-14T15:55:41.987Z,35.30
2023-05-14T16:00:44.136Z,34.60
2023-05-14T16:05:46.346Z,34.90
2023-05-14T16:10:48.416Z,36.10
2023-05-14T16:15:51.458Z,36.20
2023-05-14T16:20:53.784Z,38.60
2023-05-14T16:25:56.049Z,38.90
2023-05-14T16:30:58.732Z,41.90
2023-05-14T16:36:01.113Z,45.30
2023-05-14T16:41:03.908Z,47.70
2023-05-14T16:46:06.470Z,48.50
2023-05-14T16:51:10.250Z,49.60
2023-05-14T16:56:12.692Z,50.40
2023-05-14T17:01:15.246Z,50.90
2023-05-14T17:06:17.992Z,48.30
2023-05-14T17:11:21.490Z,48.40
2023-05-14T17:16:24.630Z,49.80
2023-05-14T17:21:27.449Z,52.30
2023-05-14T17:26:30.310Z,51.30
2023-05-14T17:31:32.720Z,50.40
2023-05-14T17:36:35.065Z,51.50
2023-05-14T17:41:37.731Z,55.50
2023-05-14T17:46:41.805Z,56.20
2023-05-14T17:51:44.211Z,55.70
2023-05-14T17:56:48.265Z,55.40
2023-05-14T18:01:50.569Z,56.00
2023-05-14T18:06:52.763Z,58.60
2023-05-14T18:11:56.930Z,57.20
2023-05-14T18:16:59.444Z,58.90
2023-05-14T18:22:01.812Z,60.60
2023-05-14T18:27:04.308Z,64.70
2023-05-14T18:32:06.828Z,67.40
2023-05-14T18:37:09.513Z,70.00
2023-05-14T18:42:11.948Z,74.50
2023-05-14T18:47:14.455Z,81.20
2023-05-14T18:52:16.715Z,88.10
2023-05-14T18:57:18.961Z,94.30
2023-05-14T19:02:21.630Z,99.90
2023-05-14T19:07:23.933Z,99.90
2023-05-14T19:12:27.014Z,99.90
2023-05-14T19:17:29.503Z,99.90
2023-05-14T19:22:31.708Z,99.90
2023-05-14T19:27:33.884Z,99.90
2023-05-14T19:32:40.128Z,99.90
2023-05-14T19:37:42.387Z,99.90
2023-05-14T19:42:44.797Z,99.90
2023-05-14T19:47:47.187Z,99.90
2023-05-14T19:52:49.540Z,99.90
2023-05-14T19:57:51.728Z,99.90
2023-05-14T20:02:54.837Z,99.90
2023-05-14T20:07:57.086Z,99.90
2023-05-14T20:12:59.185Z,99.90
2023-05-14T20:18:01.567Z,99.90
2023-05-14T20:23:03.782Z,99.90
2023-05-14T20:28:05.937Z,99.90
2023-05-14T20:33:08.471Z,99.90
2023-05-14T20:38:12.880Z,99.90
2023-05-14T20:43:15.262Z,99.90
2023-05-14T20:48:17.794Z,99.90
2023-05-14T20:53:19.864Z,99.90
2023-05-14T20:58:22.077Z,99.90
2023-05-14T21:03:24.328Z,99.90
2023-05-14T21:08:30.117Z,99.90
2023-05-14T21:13:32.157Z,99.90
2023-05-14T21:18:34.287Z,99.90
2023-05-14T21:23:36.402Z,99.90
2023-05-14T21:28:38.742Z,99.90
2023-05-14T21:33:41.196Z,99.90
2023-05-14T21:38:43.638Z,99.90
2023-05-14T21:43:46.334Z,99.90
2023-05-14T21:48:49.168Z,99.90
2023-05-14T21:53:51.592Z,99.90
2023-05-14T21:58:55.800Z,99.90
2023-05-14T22:03:58.211Z,99.90
2023-05-14T22:09:01.025Z,99.90
2023-05-14T22:14:03.304Z,99.90
2023-05-14T22:19:06.729Z,99.90
2023-05-14T22:24:09.338Z,99.90
2023-05-14T22:29:11.555Z,99.90
2023-05-14T22:34:14.393Z,99.90
2023-05-14T22:39:16.931Z,99.90
2023-05-14T22:44:19.347Z,99.90
2023-05-14T22:49:21.725Z,99.90
2023-05-14T22:54:24.461Z,99.90
2023-05-14T22:59:27.010Z,99.90
2023-05-14T23:04:29.778Z,99.90
2023-05-14T23:09:32.472Z,99.90
2023-05-14T23:14:34.868Z,99.90
2023-05-14T23:19:37.398Z,99.90
2023-05-14T23:24:39.708Z,99.90
2023-05-14T23:29:42.168Z,99.90
2023-05-14T23:34:44.616Z,99.90
2023-05-14T23:39:47.116Z,99.90
2023-05-14T23:44:49.422Z,99.90
2023-05-14T23:50:03.555Z,99.90
2023-05-14T23:55:06.756Z,99.90
